Time;durP1;ratioP1;P1;durP2;ratioP2;P2;SDS_P1;SDS_P2;PMS_P1;PMS_P2;Temp;Humidity;BMP_temperature;BMP_pressure;BME280_temperature;BME280_humidity;BME280_pressure;Samples;Min_cycle;Max_cycle;Signal;HPM_P1;HPM_P2
2023/08/10 00:02:16;;;;;;;2.88;1.20;;;;;;;;;;5109451;27;43030;-65
2023/08/10 00:04:45;;;;;;;4.40;1.48;;;;;;;;;;5108327;27;40455;-65
2023/08/10 00:07:13;;;;;;;3.28;0.88;;;;;;;;;;5109984;27;41480;-65
2023/08/10 00:09:41;;;;;;;2.53;1.00;;;;;;;;;;5108076;27;40930;-65
2023/08/10 00:12:09;;;;;;;4.97;1.15;;;;;;;;;;5108710;27;41206;-64
2023/08/10 00:14:40;;;;;;;3.88;1.10;;;;;;;;;;5109188;27;41499;-67
2023/08/10 00:17:08;;;;;;;3.85;0.98;;;;;;;;;;5109400;27;40381;-64
2023/08/10 00:19:36;;;;;;;2.22;1.00;;;;;;;;;;5108177;27;41714;-65
2023/08/10 00:22:05;;;;;;;5.00;1.08;;;;;;;;;;5109570;27;42818;-66
2023/08/10 00:24:33;;;;;;;4.10;1.10;;;;;;;;;;5108092;27;40727;-65
2023/08/10 00:27:01;;;;;;;2.05;1.00;;;;;;;;;;5108933;27;42673;-65
2023/08/10 00:29:29;;;;;;;3.38;1.55;;;;;;;;;;5108790;27;41689;-65
2023/08/10 00:31:57;;;;;;;2.38;1.38;;;;;;;;;;5108387;28;41588;-65
2023/08/10 00:34:25;;;;;;;2.60;0.80;;;;;;;;;;5108485;28;42226;-65
2023/08/10 00:36:53;;;;;;;1.67;1.00;;;;;;;;;;5108990;28;39877;-65
2023/08/10 00:39:23;;;;;;;1.95;1.15;;;;;;;;;;5107590;28;41774;-65
2023/08/10 00:41:51;;;;;;;3.92;1.35;;;;;;;;;;5124354;27;41870;-65
2023/08/10 00:44:21;;;;;;;4.47;1.15;;;;;;;;;;5107900;27;40298;-66
2023/08/10 00:46:49;;;;;;;3.17;1.17;;;;;;;;;;5107990;28;41431;-65
2023/08/10 00:49:17;;;;;;;1.55;0.98;;;;;;;;;;5108452;28;42105;-66
2023/08/10 00:51:45;;;;;;;2.75;1.20;;;;;;;;;;5108154;28;40938;-66
2023/08/10 00:54:13;;;;;;;5.00;1.23;;;;;;;;;;5108688;28;42140;-65
2023/08/10 00:56:43;;;;;;;2.47;1.10;;;;;;;;;;5106826;28;40188;-65
2023/08/10 00:59:11;;;;;;;1.67;1.05;;;;;;;;;;5124145;27;40534;-66
2023/08/10 01:01:39;;;;;;;3.58;1.02;;;;;;;;;;5108332;27;41662;-66
2023/08/10 01:04:07;;;;;;;1.25;0.80;;;;;;;;;;5108729;28;39885;-65
2023/08/10 01:06:35;;;;;;;1.67;1.00;;;;;;;;;;5107333;28;43140;-65
2023/08/10 01:09:03;;;;;;;4.35;1.10;;;;;;;;;;5123419;27;41696;-66
2023/08/10 01:11:34;;;;;;;2.60;1.10;;;;;;;;;;5106257;28;40023;-65
2023/08/10 01:14:07;;;;;;;5.63;1.27;;;;;;;;;;5106977;28;41789;-65
2023/08/10 01:16:36;;;;;;;3.58;1.58;;;;;;;;;;5123422;27;38777;-65
2023/08/10 01:19:07;;;;;;;3.92;1.42;;;;;;;;;;5108204;28;41422;-66
2023/08/10 01:21:37;;;;;;;3.20;1.33;;;;;;;;;;5104453;28;42043;-66
2023/08/10 01:24:09;;;;;;;3.22;1.25;;;;;;;;;;5106927;27;39560;-66
2023/08/10 01:26:39;;;;;;;2.95;1.15;;;;;;;;;;5106878;28;41966;-65
2023/08/10 01:29:07;;;;;;;2.30;1.35;;;;;;;;;;5106205;27;41265;-65
2023/08/10 01:31:35;;;;;;;2.60;1.30;;;;;;;;;;5107245;28;40306;-65
2023/08/10 01:34:03;;;;;;;3.75;1.10;;;;;;;;;;5107149;28;42123;-65
2023/08/10 01:36:31;;;;;;;3.35;1.10;;;;;;;;;;5107865;28;33143;-66
2023/08/10 01:38:59;;;;;;;5.60;1.30;;;;;;;;;;5108156;28;42638;-65
2023/08/10 01:41:26;;;;;;;2.10;1.20;;;;;;;;;;5106019;27;42036;-65
2023/08/10 01:43:56;;;;;;;1.95;1.20;;;;;;;;;;5107816;28;40233;-65
2023/08/10 01:46:24;;;;;;;2.10;0.90;;;;;;;;;;5107450;28;41605;-65
2023/08/10 01:48:53;;;;;;;2.35;1.30;;;;;;;;;;5107316;28;42072;-66
2023/08/10 01:51:22;;;;;;;3.15;1.45;;;;;;;;;;5107508;28;40380;-67
2023/08/10 01:53:50;;;;;;;1.98;1.30;;;;;;;;;;5107642;28;41884;-65
2023/08/10 01:56:18;;;;;;;4.88;1.35;;;;;;;;;;5106770;28;42092;-65
2023/08/10 01:58:46;;;;;;;3.55;1.10;;;;;;;;;;5105944;28;39974;-65
2023/08/10 02:01:16;;;;;;;4.55;1.40;;;;;;;;;;5107143;28;41795;-65
2023/08/10 02:03:44;;;;;;;3.67;1.40;;;;;;;;;;5106601;28;40850;-65
2023/08/10 02:06:11;;;;;;;3.05;1.25;;;;;;;;;;5123168;27;40380;-65
2023/08/10 02:08:40;;;;;;;3.28;1.45;;;;;;;;;;5105484;28;40582;-66
2023/08/10 02:11:09;;;;;;;2.90;1.02;;;;;;;;;;5105200;28;40023;-65
2023/08/10 02:13:38;;;;;;;3.35;1.10;;;;;;;;;;5105820;28;41381;-65
2023/08/10 02:16:06;;;;;;;2.20;1.00;;;;;;;;;;5105552;28;40685;-65
2023/08/10 02:18:37;;;;;;;3.13;1.35;;;;;;;;;;5107567;28;41349;-66
2023/08/10 02:21:05;;;;;;;3.88;1.52;;;;;;;;;;5105730;28;40405;-65
2023/08/10 02:23:35;;;;;;;2.92;1.15;;;;;;;;;;5105588;28;40298;-65
2023/08/10 02:26:03;;;;;;;2.75;1.38;;;;;;;;;;5123067;27;41620;-66
2023/08/10 02:28:32;;;;;;;3.03;1.60;;;;;;;;;;5122075;27;41924;-65
2023/08/10 02:31:00;;;;;;;2.50;1.05;;;;;;;;;;5106665;27;41340;-65
2023/08/10 02:33:30;;;;;;;3.22;0.90;;;;;;;;;;5106995;27;42650;-65
2023/08/10 02:35:59;;;;;;;3.33;1.33;;;;;;;;;;5106693;28;42539;-65
2023/08/10 02:38:27;;;;;;;1.98;1.02;;;;;;;;;;5105973;27;40026;-65
2023/08/10 02:40:55;;;;;;;3.05;1.20;;;;;;;;;;5105961;28;40060;-65
2023/08/10 02:43:24;;;;;;;2.20;1.10;;;;;;;;;;5105329;28;41288;-65
2023/08/10 02:45:52;;;;;;;3.45;1.33;;;;;;;;;;5106582;28;41347;-66
2023/08/10 02:48:20;;;;;;;2.10;1.20;;;;;;;;;;5106800;28;42149;-65
2023/08/10 02:50:49;;;;;;;1.35;0.88;;;;;;;;;;5106653;28;41915;-66
2023/08/10 02:53:18;;;;;;;2.55;1.10;;;;;;;;;;5124815;27;40129;-65
2023/08/10 02:55:46;;;;;;;1.73;1.15;;;;;;;;;;5109158;27;40885;-65
2023/08/10 02:58:14;;;;;;;3.00;1.27;;;;;;;;;;5126191;27;40822;-65
2023/08/10 03:00:42;;;;;;;2.67;1.60;;;;;;;;;;5108429;28;40312;-65
2023/08/10 03:03:10;;;;;;;2.80;1.23;;;;;;;;;;5108899;28;40817;-66
2023/08/10 03:05:38;;;;;;;3.40;1.15;;;;;;;;;;5108009;27;40219;-65
2023/08/10 03:08:06;;;;;;;3.08;1.75;;;;;;;;;;5110530;28;42165;-65
2023/08/10 03:10:36;;;;;;;2.40;1.45;;;;;;;;;;5108354;28;38985;-65
2023/08/10 03:13:05;;;;;;;3.15;1.25;;;;;;;;;;5108231;28;41273;-65
2023/08/10 03:15:33;;;;;;;2.58;1.25;;;;;;;;;;5109497;28;43015;-65
2023/08/10 03:18:01;;;;;;;4.47;1.73;;;;;;;;;;5110484;28;41164;-65
2023/08/10 03:20:29;;;;;;;1.38;1.00;;;;;;;;;;5108590;28;41753;-65
2023/08/10 03:22:57;;;;;;;1.70;0.98;;;;;;;;;;5109020;27;40655;-65
2023/08/10 03:25:25;;;;;;;2.20;1.13;;;;;;;;;;5109082;27;39209;-66
2023/08/10 03:27:55;;;;;;;1.77;1.00;;;;;;;;;;5108469;27;40747;-65
2023/08/10 03:30:23;;;;;;;5.50;1.20;;;;;;;;;;5112617;27;41391;-65
2023/08/10 03:32:51;;;;;;;2.97;1.38;;;;;;;;;;5109825;28;40948;-65
2023/08/10 03:35:19;;;;;;;1.45;1.00;;;;;;;;;;5107256;28;41588;-65
2023/08/10 03:37:47;;;;;;;2.25;0.95;;;;;;;;;;5108483;27;39136;-65
2023/08/10 03:40:16;;;;;;;2.50;1.15;;;;;;;;;;5108876;27;41374;-65
2023/08/10 03:42:44;;;;;;;2.20;1.33;;;;;;;;;;5107388;28;40934;-65
2023/08/10 03:45:13;;;;;;;2.25;1.45;;;;;;;;;;5109048;28;38889;-65
2023/08/10 03:47:41;;;;;;;2.90;1.42;;;;;;;;;;5108876;28;42110;-65
2023/08/10 03:50:10;;;;;;;2.83;1.38;;;;;;;;;;5108642;27;39193;-65
2023/08/10 03:52:38;;;;;;;3.85;1.50;;;;;;;;;;5107872;27;40297;-65
2023/08/10 03:55:06;;;;;;;2.75;1.17;;;;;;;;;;5112673;27;40584;-65
2023/08/10 03:57:34;;;;;;;1.50;1.10;;;;;;;;;;5116820;27;41108;-65
2023/08/10 04:00:04;;;;;;;2.63;1.27;;;;;;;;;;5108414;27;40559;-65
2023/08/10 04:02:45;;;;;;;1.73;1.10;;;;;;;;;;5108222;28;42512;-66
2023/08/10 04:05:19;;;;;;;3.03;1.20;;;;;;;;;;5107116;27;39816;-65
2023/08/10 04:07:47;;;;;;;1.58;1.00;;;;;;;;;;5108123;28;40444;-65
2023/08/10 04:10:15;;;;;;;3.70;1.42;;;;;;;;;;5109175;28;41035;-65
2023/08/10 04:12:43;;;;;;;1.95;0.95;;;;;;;;;;5109300;27;42016;-66
2023/08/10 04:15:11;;;;;;;5.45;1.20;;;;;;;;;;5109712;28;43181;-66
2023/08/10 04:17:39;;;;;;;4.22;2.00;;;;;;;;;;5106563;28;39918;-65
2023/08/10 04:20:09;;;;;;;2.95;1.40;;;;;;;;;;5108637;28;42149;-66
2023/08/10 04:22:37;;;;;;;2.67;1.20;;;;;;;;;;5108341;27;42233;-65
2023/08/10 04:25:07;;;;;;;1.65;1.10;;;;;;;;;;5109636;27;41352;-65
2023/08/10 04:27:35;;;;;;;3.03;1.40;;;;;;;;;;5108376;27;42549;-65
2023/08/10 04:30:04;;;;;;;2.83;1.42;;;;;;;;;;5108571;27;43056;-65
2023/08/10 04:32:32;;;;;;;4.07;1.65;;;;;;;;;;5115846;27;41516;-66
2023/08/10 04:35:00;;;;;;;1.88;1.42;;;;;;;;;;5123950;27;41508;-65
2023/08/10 04:37:29;;;;;;;1.77;1.10;;;;;;;;;;5128489;27;40086;-66
2023/08/10 04:39:57;;;;;;;2.53;1.10;;;;;;;;;;5129678;27;41447;-65
2023/08/10 04:42:25;;;;;;;2.97;1.42;;;;;;;;;;5128871;27;43290;-65
2023/08/10 04:44:54;;;;;;;2.75;1.38;;;;;;;;;;5129011;27;40316;-66
2023/08/10 04:47:22;;;;;;;3.80;1.40;;;;;;;;;;5129167;27;42596;-65
2023/08/10 04:49:50;;;;;;;2.45;1.15;;;;;;;;;;5116636;27;42884;-66
2023/08/10 04:52:18;;;;;;;1.40;1.23;;;;;;;;;;5107979;27;39979;-65
2023/08/10 04:54:48;;;;;;;2.50;1.23;;;;;;;;;;5108587;27;41999;-65
2023/08/10 04:57:16;;;;;;;2.50;1.35;;;;;;;;;;5108928;27;41386;-66
2023/08/10 04:59:43;;;;;;;1.58;1.05;;;;;;;;;;5107392;27;42658;-65
2023/08/10 05:02:11;;;;;;;2.72;1.38;;;;;;;;;;5100600;27;41693;-65
2023/08/10 05:04:40;;;;;;;3.60;1.65;;;;;;;;;;5108227;27;40115;-66
2023/08/10 05:07:08;;;;;;;2.22;1.40;;;;;;;;;;5108027;27;42655;-66
2023/08/10 05:09:37;;;;;;;2.22;1.20;;;;;;;;;;5107962;27;42239;-65
2023/08/10 05:12:23;;;;;;;3.80;1.20;;;;;;;;;;5107244;27;40638;-66
2023/08/10 05:14:51;;;;;;;1.77;1.17;;;;;;;;;;5108326;27;41887;-65
2023/08/10 05:17:19;;;;;;;2.92;1.00;;;;;;;;;;5106955;27;41475;-65
2023/08/10 05:19:47;;;;;;;1.83;1.40;;;;;;;;;;5107225;27;42643;-65
2023/08/10 05:22:15;;;;;;;2.50;1.10;;;;;;;;;;5108667;27;42160;-65
2023/08/10 05:24:43;;;;;;;2.10;1.20;;;;;;;;;;5108281;27;39933;-65
2023/08/10 05:27:11;;;;;;;3.13;1.50;;;;;;;;;;5108019;27;42634;-65
2023/08/10 05:29:40;;;;;;;3.10;1.10;;;;;;;;;;5107914;27;43183;-65
2023/08/10 05:32:08;;;;;;;4.38;1.40;;;;;;;;;;5107318;27;39733;-65
2023/08/10 05:34:36;;;;;;;2.03;1.15;;;;;;;;;;5106090;27;42157;-65
2023/08/10 05:37:04;;;;;;;1.77;1.25;;;;;;;;;;5103703;28;41975;-65
2023/08/10 05:39:32;;;;;;;2.75;1.75;;;;;;;;;;5110666;27;42069;-65
2023/08/10 05:42:00;;;;;;;3.90;1.50;;;;;;;;;;5102007;27;42755;-65
2023/08/10 05:44:28;;;;;;;3.53;1.42;;;;;;;;;;5127122;27;42289;-64
2023/08/10 05:46:57;;;;;;;3.40;1.67;;;;;;;;;;5120653;27;41678;-65
2023/08/10 05:49:25;;;;;;;3.72;1.52;;;;;;;;;;5101158;27;43288;-65
2023/08/10 05:51:53;;;;;;;3.38;1.48;;;;;;;;;;5123986;27;41219;-65
2023/08/10 05:54:21;;;;;;;2.67;1.60;;;;;;;;;;5117738;27;42132;-65
2023/08/10 05:56:49;;;;;;;3.45;1.85;;;;;;;;;;5119586;27;42060;-65
2023/08/10 05:59:18;;;;;;;3.40;1.75;;;;;;;;;;5115379;27;43695;-65
2023/08/10 06:01:47;;;;;;;3.40;2.13;;;;;;;;;;5114655;27;42098;-65
2023/08/10 06:04:18;;;;;;;3.60;1.77;;;;;;;;;;5119120;27;40659;-64
2023/08/10 06:06:46;;;;;;;1.92;1.08;;;;;;;;;;5110414;27;41677;-64
2023/08/10 06:09:16;;;;;;;3.42;1.42;;;;;;;;;;5110827;27;42523;-65
2023/08/10 06:11:44;;;;;;;4.60;1.92;;;;;;;;;;5103955;28;41421;-65
2023/08/10 06:14:16;;;;;;;2.25;1.27;;;;;;;;;;5112706;27;41532;-66
2023/08/10 06:16:43;;;;;;;3.38;1.75;;;;;;;;;;5112331;27;41735;-64
2023/08/10 06:19:11;;;;;;;2.10;1.40;;;;;;;;;;5115230;27;39959;-65
2023/08/10 06:21:41;;;;;;;1.95;1.20;;;;;;;;;;5116516;27;43016;-64
2023/08/10 06:24:09;;;;;;;2.60;1.48;;;;;;;;;;5114507;27;40523;-65
2023/08/10 06:26:37;;;;;;;4.10;2.63;;;;;;;;;;5111319;27;42660;-65
2023/08/10 06:29:05;;;;;;;5.63;2.42;;;;;;;;;;5131710;27;43119;-65
2023/08/10 06:31:33;;;;;;;3.33;1.60;;;;;;;;;;5116409;27;41264;-65
2023/08/10 06:34:02;;;;;;;3.22;1.73;;;;;;;;;;5110702;27;41488;-65
2023/08/10 06:36:30;;;;;;;3.20;1.40;;;;;;;;;;5113383;27;43715;-65
2023/08/10 06:39:00;;;;;;;3.10;1.38;;;;;;;;;;5131693;27;41190;-65
2023/08/10 06:41:28;;;;;;;2.47;1.38;;;;;;;;;;5131506;27;41499;-66
2023/08/10 06:43:56;;;;;;;4.00;1.58;;;;;;;;;;5130502;27;40626;-67
2023/08/10 06:46:24;;;;;;;3.45;2.08;;;;;;;;;;5131771;27;42250;-67
2023/08/10 06:48:52;;;;;;;3.83;2.20;;;;;;;;;;5131486;27;41709;-67
2023/08/10 06:51:20;;;;;;;3.92;1.67;;;;;;;;;;5116987;27;40419;-67
2023/08/10 06:53:49;;;;;;;5.45;1.52;;;;;;;;;;5110208;27;41031;-66
2023/08/10 06:56:18;;;;;;;4.63;2.03;;;;;;;;;;5109918;27;42207;-68
2023/08/10 06:58:46;;;;;;;2.60;1.90;;;;;;;;;;5109260;27;42322;-67
2023/08/10 07:01:34;;;;;;;7.22;1.67;;;;;;;;;;5109725;27;41817;-67
2023/08/10 07:04:02;;;;;;;7.53;2.65;;;;;;;;;;5111236;27;42120;-67
2023/08/10 07:06:31;;;;;;;5.60;1.80;;;;;;;;;;5112622;27;41692;-70
2023/08/10 07:08:59;;;;;;;3.90;1.60;;;;;;;;;;5108481;27;41821;-72
2023/08/10 07:11:28;;;;;;;5.38;1.92;;;;;;;;;;5112525;27;41025;-73
2023/08/10 07:13:56;;;;;;;4.93;2.20;;;;;;;;;;5131427;27;42652;-73
2023/08/10 07:16:24;;;;;;;7.90;2.40;;;;;;;;;;5130407;27;43090;-69
2023/08/10 07:18:52;;;;;;;6.55;2.40;;;;;;;;;;5125419;27;40004;-70
2023/08/10 07:21:21;;;;;;;6.68;2.25;;;;;;;;;;5108834;27;42044;-68
2023/08/10 07:23:50;;;;;;;7.38;2.70;;;;;;;;;;5109688;27;42127;-67
2023/08/10 07:26:18;;;;;;;6.78;1.73;;;;;;;;;;5109635;27;40281;-67
2023/08/10 07:28:47;;;;;;;11.75;2.08;;;;;;;;;;5109197;27;43226;-67
2023/08/10 07:31:15;;;;;;;3.88;1.67;;;;;;;;;;5109760;27;40381;-66
2023/08/10 07:33:43;;;;;;;8.25;2.38;;;;;;;;;;5108933;27;41969;-65
2023/08/10 07:36:11;;;;;;;5.50;1.80;;;;;;;;;;5108944;27;43236;-67
2023/08/10 07:38:39;;;;;;;10.23;1.95;;;;;;;;;;5105812;27;41497;-66
2023/08/10 07:41:08;;;;;;;4.35;1.60;;;;;;;;;;5106809;27;41866;-66
2023/08/10 07:43:36;;;;;;;6.10;1.77;;;;;;;;;;5107445;27;41665;-66
2023/08/10 07:46:06;;;;;;;5.35;1.92;;;;;;;;;;5107405;27;40385;-67
2023/08/10 07:48:34;;;;;;;9.25;2.45;;;;;;;;;;5106947;27;41830;-66
2023/08/10 07:51:03;;;;;;;7.38;2.88;;;;;;;;;;5109489;27;41564;-67
2023/08/10 07:53:31;;;;;;;10.75;3.03;;;;;;;;;;5109457;27;41769;-68
2023/08/10 07:55:59;;;;;;;7.93;2.67;;;;;;;;;;5108931;27;43143;-68
2023/08/10 07:58:27;;;;;;;6.18;2.42;;;;;;;;;;5114186;27;40343;-68
2023/08/10 08:00:55;;;;;;;26.58;3.53;;;;;;;;;;5127781;27;42305;-66
2023/08/10 08:03:24;;;;;;;7.30;2.67;;;;;;;;;;5108669;27;41692;-65
2023/08/10 08:05:52;;;;;;;7.63;2.25;;;;;;;;;;5122764;27;40118;-65
2023/08/10 08:08:20;;;;;;;6.15;2.50;;;;;;;;;;5128533;27;41845;-65
2023/08/10 08:10:48;;;;;;;4.32;1.95;;;;;;;;;;5129519;27;42059;-65
2023/08/10 08:13:16;;;;;;;7.57;2.40;;;;;;;;;;5129651;27;42750;-65
2023/08/10 08:15:44;;;;;;;8.77;2.50;;;;;;;;;;5128627;27;42216;-65
2023/08/10 08:18:31;;;;;;;7.22;2.42;;;;;;;;;;5111805;27;40309;-65
2023/08/10 08:21:01;;;;;;;5.30;2.13;;;;;;;;;;5108593;27;42506;-65
2023/08/10 08:23:28;;;;;;;6.55;2.20;;;;;;;;;;5107684;27;42135;-65
2023/08/10 08:25:57;;;;;;;8.50;2.58;;;;;;;;;;5108800;27;40318;-66
2023/08/10 08:28:24;;;;;;;4.13;2.25;;;;;;;;;;5108937;27;42620;-69
2023/08/10 08:30:52;;;;;;;5.43;1.77;;;;;;;;;;5108514;27;43148;-66
2023/08/10 08:33:20;;;;;;;3.38;1.55;;;;;;;;;;5108634;27;42498;-65
2023/08/10 08:35:48;;;;;;;7.65;1.55;;;;;;;;;;5108239;27;43026;-65
2023/08/10 08:38:18;;;;;;;3.53;1.80;;;;;;;;;;5127152;27;40820;-65
2023/08/10 08:40:48;;;;;;;5.88;1.42;;;;;;;;;;5129422;27;42663;-66
2023/08/10 08:43:16;;;;;;;2.58;0.85;;;;;;;;;;5128453;27;41514;-65
2023/08/10 08:45:44;;;;;;;4.10;1.25;;;;;;;;;;5128938;27;40582;-65
2023/08/10 08:48:14;;;;;;;3.53;1.20;;;;;;;;;;5129603;27;42256;-65
2023/08/10 08:50:42;;;;;;;2.30;1.38;;;;;;;;;;5120013;27;42459;-65
2023/08/10 08:53:11;;;;;;;4.82;1.20;;;;;;;;;;5108907;27;40326;-65
2023/08/10 08:55:40;;;;;;;4.25;1.13;;;;;;;;;;5123829;27;43181;-65
2023/08/10 08:58:08;;;;;;;3.25;1.15;;;;;;;;;;5128267;27;39981;-65
2023/08/10 09:00:36;;;;;;;5.82;1.25;;;;;;;;;;5128359;27;41169;-65
2023/08/10 09:03:04;;;;;;;5.40;1.58;;;;;;;;;;5129284;27;42788;-65
2023/08/10 09:05:32;;;;;;;4.22;1.55;;;;;;;;;;5127771;27;41011;-65
2023/08/10 09:08:00;;;;;;;3.90;1.20;;;;;;;;;;5129522;27;41366;-65
2023/08/10 09:10:29;;;;;;;2.67;1.33;;;;;;;;;;5128639;27;42313;-65
2023/08/10 09:12:58;;;;;;;1.85;0.90;;;;;;;;;;5128451;27;40849;-65
2023/08/10 09:15:27;;;;;;;2.90;1.50;;;;;;;;;;5108899;27;42334;-65
2023/08/10 09:17:55;;;;;;;4.45;1.75;;;;;;;;;;5108190;27;40934;-65
2023/08/10 09:20:24;;;;;;;3.45;1.45;;;;;;;;;;5106297;27;41423;-65
2023/08/10 09:22:52;;;;;;;3.80;1.88;;;;;;;;;;5108471;27;41380;-65
2023/08/10 09:25:20;;;;;;;3.63;1.42;;;;;;;;;;5107050;27;40780;-65
2023/08/10 09:27:48;;;;;;;3.65;1.60;;;;;;;;;;5108302;27;41604;-65
2023/08/10 09:30:17;;;;;;;2.75;1.35;;;;;;;;;;5107765;27;42387;-65
2023/08/10 09:32:46;;;;;;;6.00;2.58;;;;;;;;;;5106207;27;41761;-65
2023/08/10 09:35:14;;;;;;;4.18;1.63;;;;;;;;;;5109975;27;41452;-65
2023/08/10 09:37:42;;;;;;;3.03;1.52;;;;;;;;;;5116857;27;42719;-65
2023/08/10 09:40:11;;;;;;;6.97;2.00;;;;;;;;;;5118090;27;42671;-65
2023/08/10 09:42:39;;;;;;;7.65;1.65;;;;;;;;;;5107113;27;42754;-65
2023/08/10 09:45:09;;;;;;;7.85;1.75;;;;;;;;;;5107132;27;39894;-66
2023/08/10 09:47:39;;;;;;;3.95;1.73;;;;;;;;;;5105509;27;41658;-66
2023/08/10 09:50:08;;;;;;;4.13;1.55;;;;;;;;;;5107456;27;42010;-66
2023/08/10 09:52:37;;;;;;;3.83;1.70;;;;;;;;;;5106685;27;41347;-66
2023/08/10 09:55:05;;;;;;;4.88;1.65;;;;;;;;;;5100147;27;41590;-66
2023/08/10 09:57:33;;;;;;;5.90;1.60;;;;;;;;;;5103778;27;44178;-66
2023/08/10 10:00:04;;;;;;;4.25;1.73;;;;;;;;;;5096349;27;41344;-66
2023/08/10 10:02:32;;;;;;;3.97;1.98;;;;;;;;;;5107886;27;42942;-66
2023/08/10 10:05:01;;;;;;;4.97;1.50;;;;;;;;;;5110230;27;41132;-66
2023/08/10 10:07:29;;;;;;;2.42;1.38;;;;;;;;;;5109269;27;42353;-65
2023/08/10 10:09:58;;;;;;;4.88;1.48;;;;;;;;;;5104301;27;43465;-66
2023/08/10 10:12:26;;;;;;;3.40;1.77;;;;;;;;;;5109419;27;40964;-66
2023/08/10 10:14:54;;;;;;;3.72;1.42;;;;;;;;;;5109883;27;42384;-66
2023/08/10 10:17:22;;;;;;;4.15;1.75;;;;;;;;;;5108906;27;41681;-66
2023/08/10 10:19:51;;;;;;;4.32;1.90;;;;;;;;;;5111196;27;41157;-66
2023/08/10 10:22:21;;;;;;;4.68;1.60;;;;;;;;;;5098135;27;41910;-66
2023/08/10 10:24:49;;;;;;;3.60;2.03;;;;;;;;;;5110942;27;41618;-66
2023/08/10 10:27:17;;;;;;;2.58;1.27;;;;;;;;;;5105360;27;41751;-66
2023/08/10 10:29:51;;;;;;;2.75;1.88;;;;;;;;;;5089622;28;41968;-66
2023/08/10 10:32:20;;;;;;;5.88;1.55;;;;;;;;;;5104179;28;40509;-65
2023/08/10 10:34:49;;;;;;;3.95;1.50;;;;;;;;;;5108807;28;42690;-66
2023/08/10 10:37:18;;;;;;;3.85;1.60;;;;;;;;;;5109273;27;42104;-66
2023/08/10 10:39:48;;;;;;;4.07;1.80;;;;;;;;;;5089084;27;40973;-65
2023/08/10 10:42:17;;;;;;;4.05;1.70;;;;;;;;;;5093524;28;41154;-66
2023/08/10 10:45:01;;;;;;;3.25;1.80;;;;;;;;;;5107936;27;40128;-65
2023/08/10 10:47:35;;;;;;;4.22;1.88;;;;;;;;;;5109851;27;41905;-66
2023/08/10 10:50:13;;;;;;;4.35;1.75;;;;;;;;;;5097171;27;41458;-65
2023/08/10 10:52:42;;;;;;;3.40;1.52;;;;;;;;;;5096268;28;41452;-66
2023/08/10 10:55:11;;;;;;;7.18;1.90;;;;;;;;;;5108554;27;42321;-66
2023/08/10 10:57:39;;;;;;;3.60;2.08;;;;;;;;;;5108776;27;42204;-66
2023/08/10 11:00:08;;;;;;;3.47;1.85;;;;;;;;;;5108296;27;40993;-66
2023/08/10 11:02:36;;;;;;;2.65;1.60;;;;;;;;;;5103668;27;41648;-65
2023/08/10 11:05:06;;;;;;;3.05;1.60;;;;;;;;;;5120232;27;42057;-66
2023/08/10 11:07:34;;;;;;;3.28;1.92;;;;;;;;;;5115513;27;41872;-66
2023/08/10 11:10:04;;;;;;;4.25;1.60;;;;;;;;;;5125734;27;42499;-66
2023/08/10 11:12:34;;;;;;;4.43;1.90;;;;;;;;;;5112714;27;40466;-66
2023/08/10 11:15:02;;;;;;;3.25;2.00;;;;;;;;;;5110251;27;41563;-65
2023/08/10 11:17:30;;;;;;;4.00;1.52;;;;;;;;;;5108182;27;42140;-66
2023/08/10 11:20:17;;;;;;;5.32;1.40;;;;;;;;;;5117454;27;40133;-65
2023/08/10 11:22:45;;;;;;;4.78;2.00;;;;;;;;;;5108077;27;42586;-66
2023/08/10 11:25:13;;;;;;;4.20;1.30;;;;;;;;;;5107441;27;42106;-66
2023/08/10 11:27:43;;;;;;;3.72;1.80;;;;;;;;;;5110188;27;40077;-66
2023/08/10 11:30:11;;;;;;;5.57;1.38;;;;;;;;;;5107431;27;43070;-66
2023/08/10 11:32:40;;;;;;;3.15;1.25;;;;;;;;;;5108283;27;42402;-66
2023/08/10 11:35:09;;;;;;;9.15;1.42;;;;;;;;;;5099483;27;41848;-66
2023/08/10 11:37:41;;;;;;;3.60;1.70;;;;;;;;;;5109085;27;41565;-66
2023/08/10 11:40:11;;;;;;;2.25;1.30;;;;;;;;;;5105044;27;40217;-66
2023/08/10 11:42:39;;;;;;;2.63;1.20;;;;;;;;;;5086673;28;41314;-66
2023/08/10 11:45:11;;;;;;;3.08;1.92;;;;;;;;;;5089920;28;43093;-66
2023/08/10 11:47:40;;;;;;;4.43;1.70;;;;;;;;;;5105922;27;40590;-66
2023/08/10 11:50:29;;;;;;;5.28;1.70;;;;;;;;;;5107914;27;41315;-65
2023/08/10 11:52:58;;;;;;;3.22;1.45;;;;;;;;;;5107208;27;41282;-66
2023/08/10 11:55:27;;;;;;;3.80;1.90;;;;;;;;;;5108202;27;41774;-66
2023/08/10 11:57:57;;;;;;;3.13;1.85;;;;;;;;;;5110009;27;41740;-66
2023/08/10 12:00:30;;;;;;;2.30;1.60;;;;;;;;;;5108549;27;40123;-66
2023/08/10 12:03:01;;;;;;;2.30;1.50;;;;;;;;;;5109624;27;42056;-66
2023/08/10 12:05:36;;;;;;;2.63;1.58;;;;;;;;;;5108969;27;42273;-66
2023/08/10 12:08:04;;;;;;;5.35;1.45;;;;;;;;;;5108459;27;40411;-66
2023/08/10 12:10:36;;;;;;;3.17;1.48;;;;;;;;;;5109291;27;41806;-66
2023/08/10 12:13:05;;;;;;;4.63;1.92;;;;;;;;;;5109235;27;32209;-66
2023/08/10 12:15:35;;;;;;;2.38;1.60;;;;;;;;;;5108524;27;42150;-66
2023/08/10 12:18:04;;;;;;;3.00;1.80;;;;;;;;;;5109469;27;41850;-66
2023/08/10 12:20:32;;;;;;;5.00;1.60;;;;;;;;;;5107987;27;41286;-66
2023/08/10 12:23:00;;;;;;;2.28;1.30;;;;;;;;;;5108038;27;42794;-66
2023/08/10 12:25:28;;;;;;;3.95;1.63;;;;;;;;;;5107886;27;42067;-66
2023/08/10 12:27:56;;;;;;;3.38;2.08;;;;;;;;;;5108360;27;41323;-66
2023/08/10 12:30:24;;;;;;;4.47;1.80;;;;;;;;;;5108207;27;41568;-66
2023/08/10 12:32:53;;;;;;;1.85;1.50;;;;;;;;;;5109062;27;42594;-66
2023/08/10 12:35:21;;;;;;;2.08;1.40;;;;;;;;;;5107696;27;41280;-66
2023/08/10 12:37:49;;;;;;;2.70;2.05;;;;;;;;;;5108281;27;41859;-66
2023/08/10 12:40:17;;;;;;;3.35;2.00;;;;;;;;;;5108381;27;39826;-66
2023/08/10 12:42:45;;;;;;;1.55;1.45;;;;;;;;;;5107672;27;41841;-65
2023/08/10 12:45:13;;;;;;;3.13;1.40;;;;;;;;;;5108587;27;41998;-66
2023/08/10 12:47:42;;;;;;;3.03;1.88;;;;;;;;;;5108247;27;41095;-66
2023/08/10 12:50:11;;;;;;;2.38;1.88;;;;;;;;;;5107535;27;42634;-66
2023/08/10 12:52:39;;;;;;;2.25;1.83;;;;;;;;;;5107856;27;41924;-66
2023/08/10 12:55:08;;;;;;;3.38;1.88;;;;;;;;;;5108937;27;40696;-66
2023/08/10 12:57:36;;;;;;;2.53;1.63;;;;;;;;;;5107186;27;42258;-66
2023/08/10 13:00:05;;;;;;;2.88;1.83;;;;;;;;;;5108444;27;40358;-66
2023/08/10 13:02:33;;;;;;;2.85;1.98;;;;;;;;;;5107696;27;42171;-66
2023/08/10 13:05:02;;;;;;;3.45;2.13;;;;;;;;;;5107755;27;43206;-66
2023/08/10 13:07:32;;;;;;;2.88;2.13;;;;;;;;;;5107892;27;40365;-66
2023/08/10 13:10:00;;;;;;;2.80;2.10;;;;;;;;;;5107772;27;42526;-66
2023/08/10 13:12:28;;;;;;;2.70;1.77;;;;;;;;;;5106298;27;42032;-66
2023/08/10 13:14:56;;;;;;;3.28;2.30;;;;;;;;;;5108292;27;40344;-66
2023/08/10 13:17:25;;;;;;;4.80;2.15;;;;;;;;;;5107705;27;42773;-66
2023/08/10 13:19:58;;;;;;;2.72;1.80;;;;;;;;;;5103786;27;41260;-71
2023/08/10 13:22:27;;;;;;;2.67;2.03;;;;;;;;;;5114072;27;41672;-65
2023/08/10 13:24:56;;;;;;;4.60;1.95;;;;;;;;;;5113189;27;41659;-66
2023/08/10 13:27:24;;;;;;;3.58;2.20;;;;;;;;;;5118499;27;41310;-66
2023/08/10 13:29:52;;;;;;;5.88;2.35;;;;;;;;;;5110278;27;42274;-66
2023/08/10 13:32:20;;;;;;;2.17;1.90;;;;;;;;;;5106047;27;41539;-66
2023/08/10 13:34:48;;;;;;;3.47;2.05;;;;;;;;;;5107407;27;41382;-66
2023/08/10 13:37:16;;;;;;;12.70;2.13;;;;;;;;;;5085103;27;41511;-65
2023/08/10 13:39:45;;;;;;;3.05;2.22;;;;;;;;;;5100358;27;41977;-65
2023/08/10 13:42:14;;;;;;;5.75;2.13;;;;;;;;;;5106189;27;41451;-65
2023/08/10 13:44:42;;;;;;;3.90;2.00;;;;;;;;;;5107228;27;42860;-65
2023/08/10 13:47:10;;;;;;;4.30;2.40;;;;;;;;;;5097179;27;40123;-65
2023/08/10 13:49:38;;;;;;;2.47;2.00;;;;;;;;;;5098452;27;41580;-65
2023/08/10 13:52:09;;;;;;;4.25;2.10;;;;;;;;;;5107237;27;43176;-65
2023/08/10 13:54:37;;;;;;;3.15;2.40;;;;;;;;;;5104664;27;40295;-66
2023/08/10 13:57:11;;;;;;;4.63;2.30;;;;;;;;;;5105471;27;41724;-65
2023/08/10 13:59:40;;;;;;;3.80;2.20;;;;;;;;;;5103189;27;41662;-65
2023/08/10 14:02:09;;;;;;;3.47;1.95;;;;;;;;;;5108266;27;42247;-65
2023/08/10 14:04:37;;;;;;;3.58;1.83;;;;;;;;;;5104633;27;43209;-65
2023/08/10 14:07:05;;;;;;;2.47;1.90;;;;;;;;;;5110047;27;40204;-65
2023/08/10 14:09:33;;;;;;;2.25;2.00;;;;;;;;;;5116956;27;41419;-65
2023/08/10 14:12:01;;;;;;;2.22;1.90;;;;;;;;;;5111910;27;41917;-65
2023/08/10 14:14:29;;;;;;;3.28;1.88;;;;;;;;;;5110830;27;41182;-65
2023/08/10 14:16:59;;;;;;;3.22;1.83;;;;;;;;;;5086135;28;42931;-65
2023/08/10 14:19:27;;;;;;;4.05;1.92;;;;;;;;;;5112004;27;42765;-66
2023/08/10 14:21:55;;;;;;;2.65;2.10;;;;;;;;;;5109728;27;41037;-65
2023/08/10 14:24:23;;;;;;;2.30;1.75;;;;;;;;;;5106258;27;42054;-65
2023/08/10 14:26:51;;;;;;;2.45;1.98;;;;;;;;;;5095864;27;41088;-65
2023/08/10 14:29:19;;;;;;;3.35;1.80;;;;;;;;;;5092669;28;42268;-65
2023/08/10 14:31:47;;;;;;;3.22;2.20;;;;;;;;;;5106674;27;41585;-65
2023/08/10 14:34:16;;;;;;;3.17;1.83;;;;;;;;;;5105882;28;40642;-66
2023/08/10 14:36:45;;;;;;;3.00;2.20;;;;;;;;;;5105987;27;42055;-65
2023/08/10 14:39:13;;;;;;;3.83;1.95;;;;;;;;;;5091977;27;42670;-65
2023/08/10 14:41:42;;;;;;;4.10;2.05;;;;;;;;;;5109305;27;40081;-65
2023/08/10 14:44:10;;;;;;;3.70;1.92;;;;;;;;;;5109781;27;41196;-65
2023/08/10 14:46:38;;;;;;;8.05;2.25;;;;;;;;;;5115337;27;40121;-65
2023/08/10 14:49:06;;;;;;;2.80;2.08;;;;;;;;;;5108355;27;42591;-66
2023/08/10 14:51:36;;;;;;;2.97;1.70;;;;;;;;;;5115118;27;42725;-66
2023/08/10 14:54:04;;;;;;;3.75;2.05;;;;;;;;;;5106732;27;39852;-65